Flight Track Log - Related Links

Times and Time Zones

All times are in EDT time to prevent confusion due to time zone crossing. See the C-GILV flight status page for this flight to view local times or setup timezone preferences in your user account.

Time Position Orientation Groundspeed Altitude Reporting Facility
EDT Latitude Longitude Course Direction KTS MPH feet Rate Location/Type
Tue 03:33:02 PM 42.1856 -72.5408 270° West 100 115 600  Level Boston Center
Tue 03:33:50 PM 42.1856 -72.5661 270° West 116 133 1,400 826 Climbing Boston Center
Tue 03:34:51 PM 42.2169 -72.5633 North 136 157 2,100 787 Climbing Boston Center
Tue 03:35:52 PM 42.2378 -72.5214 56° Northeast 137 158 3,000 857 Climbing Boston Center
Tue 03:37:04 PM 42.2567 -72.4625 67° East 137 158 4,000 793 Climbing Boston Center
Tue 03:37:53 PM 42.2692 -72.4289 63° Northeast 137 158 4,600 818 Climbing Boston Center
Tue 03:38:54 PM 42.2858 -72.3700 69° East 146 168 5,500 699 Climbing Boston Center
Tue 03:40:19 PM 42.3086 -72.3081 64° Northeast 165 190 6,300 745 Climbing Boston Center
Tue 03:41:19 PM 42.3461 -72.2717 36° Northeast 154 177 7,300 850 Climbing Boston Center
Tue 03:42:19 PM 42.3794 -72.2322 41° Northeast 144 166 8,000 700 Climbing Boston Center
Tue 03:43:19 PM 42.4064 -72.1983 43° Northeast 139 160 8,700 500 Climbing Boston Center
Tue 03:44:19 PM 42.4458 -72.1558 38° Northeast 146 168 9,000 136 Climbing Boston Center
Tue 03:45:31 PM 42.4792 -72.1164 41° Northeast 161 185 9,000  Level Boston Center
Tue 03:46:31 PM 42.5289 -72.0653 37° Northeast 166 191 9,000 50 Level Boston Center
Tue 03:47:31 PM 42.5642 -72.0200 43° Northeast 177 204 9,100 50 Climbing Boston Center
Tue 03:48:31 PM 42.5889 -71.9467 65° Northeast 190 219 9,100  Level Boston Center
Tue 03:49:31 PM 42.6136 -71.8758 65° Northeast 198 228 9,100 -50 Level Boston Center
Tue 03:50:31 PM 42.6342 -71.8081 68° East 191 220 9,000  Descending Boston Center
Tue 03:51:31 PM 42.6547 -71.7400 68° East 191 220 9,100 50 Climbing Boston Center
Tue 03:52:31 PM 42.6769 -71.6719 66° East 196 226 9,100  Level Boston Center
Tue 03:53:31 PM 42.6994 -71.6011 67° East 196 226 9,100 -50 Level Boston Center
Tue 03:54:31 PM 42.7239 -71.5328 64° Northeast 196 226 9,000 -50 Descending Boston Center
Tue 03:55:31 PM 42.7464 -71.4619 67° East 196 226 9,000  Level Boston Center
Tue 03:56:43 PM 42.7686 -71.3964 65° Northeast 196 226 9,000  Level Boston Center
Tue 03:57:43 PM 42.7969 -71.3139 65° Northeast 196 226 9,000  Level Boston Center
Tue 03:58:43 PM 42.8194 -71.2514 64° Northeast 196 226 9,000  Level Boston Center
Tue 03:59:43 PM 42.8456 -71.1742 65° Northeast 196 226 9,000 -50 Level Boston Center
Tue 04:00:43 PM 42.8658 -71.1144 65° Northeast 196 226 8,900  Descending Boston Center
Tue 04:01:30 PM 42.8833 -71.0500 70° East 202 232 9,000 53 Climbing KA90
Tue 04:02:36 PM 42.9167 -70.9667 61° Northeast 203 234 9,000  Level KA90
Tue 04:03:36 PM 42.9333 -70.9000 71° East 203 234 9,000  Level KA90
Tue 04:04:36 PM 42.9500 -70.8333 71° East 202 232 9,000  Level KA90
Tue 04:05:36 PM 42.9833 -70.7500 61° Northeast 205 236 9,000 -9 Level KA90
Tue 04:07:00 PM 43.0021 -70.6571 75° East  Level FlightAware Approximate
Tue 04:14:00 PM 43.1169 -70.1992 68° East  Level FlightAware Approximate
Tue 04:15:00 PM 43.1355 -70.1351 68° East  Level FlightAware Approximate
Tue 04:16:00 PM 43.1540 -70.0709 68° East  Level FlightAware Approximate
Tue 04:16:19 PM 43.2094 -69.9789 69° East 201 231 8,900  Level Boston Center
Tue 04:17:00 PM 43.1725 -70.0066 68° East  Level FlightAware Approximate
Tue 04:17:19 PM 43.2272 -69.9267 65° Northeast 215 247 8,900  Level Boston Center
Tue 04:18:00 PM 43.1909 -69.9424 68° East  Level FlightAware Approximate
Tue 04:18:19 PM 43.2506 -69.8489 68° East 210 242 8,900  Level Boston Center
Tue 04:19:00 PM 43.2093 -69.8781 69° East  Level FlightAware Approximate
Tue 04:19:19 PM 43.2678 -69.7853 70° East 200 230 8,800  Level Boston Center
Tue 04:20:00 PM 43.2277 -69.8137 69° East  Level FlightAware Approximate
Tue 04:20:19 PM 43.2892 -69.7158 67° East 195 224 8,800  Level Boston Center
Tue 04:21:00 PM 43.2461 -69.7493 69° East  Level FlightAware Approximate
Tue 04:21:19 PM 43.3081 -69.6436 70° East 195 224 8,800  Level Boston Center
Tue 04:22:19 PM 43.3294 -69.5714 68° East 195 224 8,900  Climbing Boston Center
Tue 04:23:19 PM 43.3506 -69.5019 67° East 195 224 8,800 -50 Descending Boston Center
Tue 04:24:19 PM 43.3797 -69.4289 61° Northeast 195 224 8,800  Level Boston Center
Tue 04:25:19 PM 43.3992 -69.3681 66° East 195 224 8,800  Level Boston Center
Tue 04:26:19 PM 43.4281 -69.2864 64° Northeast 205 236 8,800  Level Boston Center
Tue 04:27:19 PM 43.4511 -69.2194 65° Northeast 199 229 8,800 50 Level Boston Center
Tue 04:28:19 PM 43.4742 -69.1497 65° Northeast 199 229 8,900  Climbing Boston Center
Tue 04:29:19 PM 43.4972 -69.0767 66° East 198 228 8,800 -50 Descending Boston Center
Tue 04:30:19 PM 43.5225 -69.0122 62° Northeast 198 228 8,800  Level Boston Center
Tue 04:31:19 PM 43.5411 -68.9397 70° East 198 228 8,800 50 Level Boston Center
Tue 04:32:19 PM 43.5619 -68.8725 67° East 198 228 8,900  Climbing Boston Center
Tue 04:33:19 PM 43.5825 -68.7967 69° East 200 230 8,800 -50 Descending Boston Center
Tue 04:34:19 PM 43.6008 -68.7239 71° East 200 230 8,800  Level Boston Center
Tue 04:35:19 PM 43.6217 -68.6539 68° East 200 230 8,800  Level Boston Center
Tue 04:36:19 PM 43.6400 -68.5839 70° East 200 230 8,800  Level Boston Center
Tue 04:37:19 PM 43.6583 -68.5108 71° East 194 223 8,800  Level Boston Center
Tue 04:38:31 PM 43.6789 -68.4406 68° East 194 223 8,800  Level Boston Center
Tue 04:39:31 PM 43.7031 -68.3528 69° East 194 223 8,800  Level Boston Center
Tue 04:40:31 PM 43.7233 -68.2825 68° East 194 223 8,800 62 Level Boston Center
Tue 04:41:08 PM 43.7167 -68.2333 101° East 200 230 8,900 62 Climbing Moncton Center
Tue 04:42:08 PM 43.7333 -68.1667 71° East 200 230 8,900  Level Moncton Center
Tue 04:43:08 PM 43.7500 -68.1000 71° East 200 230 8,900  Level Moncton Center
Tue 04:44:08 PM 43.8000 -68.0333 44° Northeast 200 230 8,900  Level Moncton Center
Tue 04:45:08 PM 43.8000 -67.9333 90° East 200 230 8,900  Level Moncton Center
Tue 04:46:08 PM 43.8333 -67.8667 55° Northeast 200 230 8,900  Level Moncton Center
Tue 04:47:08 PM 43.8500 -67.8000 71° East 200 230 8,900  Level Moncton Center
Tue 04:48:08 PM 43.8667 -67.7333 71° East 200 230 8,900  Level Moncton Center
Tue 04:49:08 PM 43.8833 -67.6667 71° East 200 230 8,900  Level Moncton Center
Tue 04:50:08 PM 43.9000 -67.6000 71° East 200 230 8,900 50 Level Moncton Center
Tue 04:51:08 PM 43.9333 -67.5333 55° Northeast 200 230 9,000 50 Climbing Moncton Center
Tue 04:52:08 PM 43.9500 -67.4667 71° East 200 230 9,000 -50 Level Moncton Center
Tue 04:53:08 PM 43.9667 -67.3667 77° East 200 230 8,900 -50 Descending Moncton Center
Tue 04:54:08 PM 43.9833 -67.3000 71° East 200 230 8,900  Level Moncton Center
Tue 04:55:08 PM 44.0000 -67.2333 71° East 200 230 8,900  Level Moncton Center
Tue 04:56:08 PM 44.0000 -67.1667 90° East 200 230 8,900  Level Moncton Center
Tue 04:57:08 PM 44.0333 -67.1000 55° Northeast 190 219 8,900  Level Moncton Center
Tue 04:58:08 PM 44.0500 -67.0333 71° East 190 219 8,900  Level Moncton Center
Tue 04:59:08 PM 44.0667 -66.9500 74° East 190 219 8,900  Level Moncton Center
Tue 05:00:08 PM 44.1000 -66.8833 55° Northeast 190 219 8,900  Level Moncton Center
Tue 05:01:08 PM 44.1167 -66.8167 71° East 190 219 8,900  Level Moncton Center
Tue 05:02:08 PM 44.1333 -66.7500 71° East 190 219 8,900  Level Moncton Center
Tue 05:03:08 PM 44.1500 -66.6833 71° East 190 219 8,900  Level Moncton Center
Tue 05:04:08 PM 44.1667 -66.5833 77° East 190 219 8,900  Level Moncton Center
Tue 05:05:08 PM 44.1833 -66.5500 55° Northeast 190 219 8,900  Level Moncton Center
Tue 05:06:08 PM 44.2000 -66.4500 77° East 190 219 8,900  Level Moncton Center
Tue 05:07:08 PM 44.2167 -66.3833 71° East 190 219 8,900  Level Moncton Center
Tue 05:08:08 PM 44.2333 -66.3167 71° East 190 219 8,900  Level Moncton Center
Tue 05:09:08 PM 44.2500 -66.2333 74° East 190 219 8,900  Level Moncton Center
Tue 05:10:08 PM 44.2667 -66.1667 71° East 190 219 8,900  Level Moncton Center
Tue 05:11:08 PM 44.2833 -66.1000 71° East 190 219 8,900  Level Moncton Center
Tue 05:12:08 PM 44.3000 -66.0333 71° East 190 219 8,900 50 Level Moncton Center
Tue 05:13:08 PM 44.3167 -65.9667 71° East 190 219 9,000  Climbing Moncton Center
Tue 05:14:08 PM 44.3333 -65.9000 71° East 190 219 8,900 -50 Descending Moncton Center
Tue 05:15:08 PM 44.3500 -65.8167 74° East 190 219 8,900  Level Moncton Center
Tue 05:16:08 PM 44.3667 -65.7500 71° East 190 219 8,900  Level Moncton Center
Tue 05:17:08 PM 44.4000 -65.6833 55° Northeast 190 219 8,900  Level Moncton Center
Tue 05:18:08 PM 44.4000 -65.6167 90° East 190 219 8,900  Level Moncton Center
Tue 05:19:08 PM 44.4333 -65.5500 55° Northeast 190 219 8,900  Level Moncton Center
Tue 05:20:08 PM 44.4333 -65.4667 90° East 190 219 8,900 50 Level Moncton Center
Tue 05:21:08 PM 44.4667 -65.4000 55° Northeast 190 219 9,000  Climbing Moncton Center
Tue 05:22:08 PM 44.4667 -65.3333 90° East 190 219 8,900 -50 Descending Moncton Center
Tue 05:23:08 PM 44.5000 -65.2667 55° Northeast 190 219 8,900  Level Moncton Center
Tue 05:24:08 PM 44.5167 -65.2000 71° East 190 219 8,900  Level Moncton Center
Tue 05:25:08 PM 44.5333 -65.1167 74° East 190 219 8,900  Level Moncton Center
Tue 05:26:08 PM 44.5500 -65.0500 71° East 190 219 8,900  Level Moncton Center
Tue 05:27:08 PM 44.5500 -64.9667 90° East 190 219 8,900  Level Moncton Center
Tue 05:28:08 PM 44.5667 -64.9167 65° Northeast 190 219 8,900 -50 Level Moncton Center
Tue 05:29:08 PM 44.5833 -64.8167 77° East 190 219 8,800 -50 Descending Moncton Center
Tue 05:30:08 PM 44.6000 -64.7500 71° East 190 219 8,800  Level Moncton Center
Tue 05:31:08 PM 44.6167 -64.6833 71° East 190 219 8,800  Level Moncton Center
Tue 05:32:08 PM 44.6333 -64.6167 71° East 190 219 8,800  Level Moncton Center
Tue 05:33:08 PM 44.6500 -64.5333 74° East 190 219 8,800 -250 Level Moncton Center
Tue 05:34:08 PM 44.6667 -64.4667 71° East 200 230 8,300 -850 Descending Moncton Center
Tue 05:35:08 PM 44.6833 -64.3667 77° East 220 253 7,100 -1,100 Descending Moncton Center
Tue 05:36:08 PM 44.7000 -64.3000 71° East 220 253 6,100 -1,050 Descending Moncton Center
Tue 05:37:08 PM 44.7000 -64.2167 90° East 220 253 5,000 -1,000 Descending Moncton Center
Tue 05:38:08 PM 44.7167 -64.1333 74° East 220 253 4,100 -500 Descending Moncton Center
Tue 05:39:08 PM 44.7333 -64.0500 74° East 200 230 4,000 -100 Descending Moncton Center
Tue 05:40:08 PM 44.7333 -63.9667 90° East 190 219 3,900  Descending Moncton Center
Tue 05:41:08 PM 44.7500 -63.9000 71° East 180 207 4,000 -200 Climbing Moncton Center
Tue 05:42:08 PM 44.7500 -63.8333 90° East 200 230 3,500 -500 Descending Moncton Center
Tue 05:43:08 PM 44.7500 -63.7667 90° East 200 230 3,000 -500 Descending Moncton Center
Tue 05:44:08 PM 44.7667 -63.6667 77° East 200 230 2,500 -550 Descending Moncton Center
Tue 05:45:08 PM 44.7833 -63.6000 71° East 200 230 1,900 -550 Descending Moncton Center
Tue 05:46:08 PM 44.8000 -63.5333 71° East 190 219 1,400 -350 Descending Moncton Center
Tue 05:47:08 PM 44.8333 -63.4833 47° Northeast 160 184 1,200 -350 Descending Moncton Center
Tue 05:48:08 PM 44.8500 -63.4500 55° Northeast 110 127 700 -500 Descending Moncton Center

Login

Don't have an account? Register now (free) for customized features, flight alerts, and more!